sensor_id;sensor_type;location;lat;lon;timestamp;temperature;humidity
32476;DHT22;18929;48.008;10.882;2023-04-29T00:00:06;13.30;99.90
32476;DHT22;18929;48.008;10.882;2023-04-29T00:02:35;12.70;99.90
32476;DHT22;18929;48.008;10.882;2023-04-29T00:05:03;12.80;99.90
32476;DHT22;18929;48.008;10.882;2023-04-29T00:07:30;12.30;99.90
32476;DHT22;18929;48.008;10.882;2023-04-29T00:09:56;12.30;99.90
32476;DHT22;18929;48.008;10.882;2023-04-29T00:12:23;12.50;99.90
32476;DHT22;18929;48.008;10.882;2023-04-29T00:14:50;12.10;99.90
32476;DHT22;18929;48.008;10.882;2023-04-29T00:17:17;11.60;99.90
32476;DHT22;18929;48.008;10.882;2023-04-29T00:19:45;11.70;99.90
32476;DHT22;18929;48.008;10.882;2023-04-29T00:22:12;12.10;99.90
32476;DHT22;18929;48.008;10.882;2023-04-29T00:27:42;12.30;99.90
32476;DHT22;18929;48.008;10.882;2023-04-29T00:30:09;12.80;99.90
32476;DHT22;18929;48.008;10.882;2023-04-29T00:32:36;12.80;99.90
32476;DHT22;18929;48.008;10.882;2023-04-29T00:35:04;12.90;99.90
32476;DHT22;18929;48.008;10.882;2023-04-29T00:37:31;12.70;99.90
32476;DHT22;18929;48.008;10.882;2023-04-29T00:39:59;12.70;99.90
32476;DHT22;18929;48.008;10.882;2023-04-29T00:42:25;12.70;99.90
32476;DHT22;18929;48.008;10.882;2023-04-29T00:44:52;12.60;99.90
32476;DHT22;18929;48.008;10.882;2023-04-29T00:47:20;13.00;99.90
32476;DHT22;18929;48.008;10.882;2023-04-29T00:49:47;13.20;99.90
32476;DHT22;18929;48.008;10.882;2023-04-29T00:52:15;13.20;99.90
32476;DHT22;18929;48.008;10.882;2023-04-29T00:54:43;13.40;99.90
32476;DHT22;18929;48.008;10.882;2023-04-29T00:57:09;13.50;99.90
32476;DHT22;18929;48.008;10.882;2023-04-29T00:59:36;13.10;99.90
32476;DHT22;18929;48.008;10.882;2023-04-29T01:02:03;13.40;99.90
32476;DHT22;18929;48.008;10.882;2023-04-29T01:04:31;13.40;99.90
32476;DHT22;18929;48.008;10.882;2023-04-29T01:07:03;13.20;99.90
32476;DHT22;18929;48.008;10.882;2023-04-29T01:09:37;13.30;99.90
32476;DHT22;18929;48.008;10.882;2023-04-29T01:12:09;13.30;99.90
32476;DHT22;18929;48.008;10.882;2023-04-29T01:14:36;13.30;99.90
32476;DHT22;18929;48.008;10.882;2023-04-29T01:17:05;13.40;99.90
32476;DHT22;18929;48.008;10.882;2023-04-29T01:19:38;13.00;99.90
32476;DHT22;18929;48.008;10.882;2023-04-29T01:22:06;13.00;99.90
32476;DHT22;18929;48.008;10.882;2023-04-29T01:24:34;13.30;99.90
32476;DHT22;18929;48.008;10.882;2023-04-29T01:27:04;13.30;99.90
32476;DHT22;18929;48.008;10.882;2023-04-29T01:29:34;13.00;99.90
32476;DHT22;18929;48.008;10.882;2023-04-29T01:32:04;13.20;99.90
32476;DHT22;18929;48.008;10.882;2023-04-29T01:34:33;13.30;99.90
32476;DHT22;18929;48.008;10.882;2023-04-29T01:37:05;13.10;99.90
32476;DHT22;18929;48.008;10.882;2023-04-29T01:39:36;12.70;99.90
32476;DHT22;18929;48.008;10.882;2023-04-29T01:42:09;12.70;99.90
32476;DHT22;18929;48.008;10.882;2023-04-29T01:44:41;12.90;99.90
32476;DHT22;18929;48.008;10.882;2023-04-29T01:47:08;13.00;99.90
32476;DHT22;18929;48.008;10.882;2023-04-29T01:49:36;13.00;99.90
32476;DHT22;18929;48.008;10.882;2023-04-29T01:52:04;13.10;99.90
32476;DHT22;18929;48.008;10.882;2023-04-29T01:54:31;12.90;99.90
32476;DHT22;18929;48.008;10.882;2023-04-29T01:57:02;13.10;99.90
32476;DHT22;18929;48.008;10.882;2023-04-29T01:59:29;13.10;99.90
32476;DHT22;18929;48.008;10.882;2023-04-29T02:01:56;13.30;99.90
32476;DHT22;18929;48.008;10.882;2023-04-29T02:04:23;12.80;99.90
32476;DHT22;18929;48.008;10.882;2023-04-29T02:06:50;13.00;99.90
32476;DHT22;18929;48.008;10.882;2023-04-29T02:09:17;13.20;99.90
32476;DHT22;18929;48.008;10.882;2023-04-29T02:11:44;13.00;99.90
32476;DHT22;18929;48.008;10.882;2023-04-29T02:14:12;12.90;99.90
32476;DHT22;18929;48.008;10.882;2023-04-29T02:16:39;12.80;99.90
32476;DHT22;18929;48.008;10.882;2023-04-29T02:19:06;13.00;99.90
32476;DHT22;18929;48.008;10.882;2023-04-29T02:21:32;13.10;99.90
32476;DHT22;18929;48.008;10.882;2023-04-29T02:24:00;13.20;99.90
32476;DHT22;18929;48.008;10.882;2023-04-29T02:26:26;12.70;99.90
32476;DHT22;18929;48.008;10.882;2023-04-29T02:28:53;12.40;99.90
32476;DHT22;18929;48.008;10.882;2023-04-29T02:31:23;12.80;99.90
32476;DHT22;18929;48.008;10.882;2023-04-29T02:33:49;12.80;99.90
32476;DHT22;18929;48.008;10.882;2023-04-29T02:36:16;13.10;99.90
32476;DHT22;18929;48.008;10.882;2023-04-29T02:38:43;13.00;99.90
32476;DHT22;18929;48.008;10.882;2023-04-29T02:41:09;13.10;99.90
32476;DHT22;18929;48.008;10.882;2023-04-29T02:43:41;13.20;99.90
32476;DHT22;18929;48.008;10.882;2023-04-29T02:46:09;13.10;99.90
32476;DHT22;18929;48.008;10.882;2023-04-29T02:48:37;13.30;99.90
32476;DHT22;18929;48.008;10.882;2023-04-29T02:51:04;12.90;99.90
32476;DHT22;18929;48.008;10.882;2023-04-29T02:53:31;13.10;99.90
32476;DHT22;18929;48.008;10.882;2023-04-29T02:55:58;13.20;99.90
32476;DHT22;18929;48.008;10.882;2023-04-29T02:58:24;13.10;99.90
32476;DHT22;18929;48.008;10.882;2023-04-29T03:00:51;13.10;99.90
32476;DHT22;18929;48.008;10.882;2023-04-29T03:03:18;12.90;99.90
32476;DHT22;18929;48.008;10.882;2023-04-29T03:05:46;13.00;99.90
32476;DHT22;18929;48.008;10.882;2023-04-29T03:08:13;13.00;99.90
32476;DHT22;18929;48.008;10.882;2023-04-29T03:10:40;12.90;99.90
32476;DHT22;18929;48.008;10.882;2023-04-29T03:13:07;12.30;99.90
32476;DHT22;18929;48.008;10.882;2023-04-29T03:15:34;12.60;99.90
32476;DHT22;18929;48.008;10.882;2023-04-29T03:18:01;12.60;99.90
32476;DHT22;18929;48.008;10.882;2023-04-29T03:20:29;12.60;99.90
32476;DHT22;18929;48.008;10.882;2023-04-29T03:22:58;12.80;99.90
32476;DHT22;18929;48.008;10.882;2023-04-29T03:25:25;12.90;99.90
32476;DHT22;18929;48.008;10.882;2023-04-29T03:27:53;12.80;99.90
32476;DHT22;18929;48.008;10.882;2023-04-29T03:30:19;12.80;99.90
32476;DHT22;18929;48.008;10.882;2023-04-29T03:32:46;12.60;99.90
32476;DHT22;18929;48.008;10.882;2023-04-29T03:35:13;12.70;99.90
32476;DHT22;18929;48.008;10.882;2023-04-29T03:37:40;12.80;99.90
32476;DHT22;18929;48.008;10.882;2023-04-29T03:40:11;12.70;99.90
32476;DHT22;18929;48.008;10.882;2023-04-29T03:42:38;12.60;99.90
32476;DHT22;18929;48.008;10.882;2023-04-29T03:45:05;12.30;99.90
32476;DHT22;18929;48.008;10.882;2023-04-29T03:47:32;12.50;99.90
32476;DHT22;18929;48.008;10.882;2023-04-29T03:49:59;12.60;99.90
32476;DHT22;18929;48.008;10.882;2023-04-29T03:52:26;12.60;99.90
32476;DHT22;18929;48.008;10.882;2023-04-29T03:54:52;12.60;99.90
32476;DHT22;18929;48.008;10.882;2023-04-29T03:57:21;12.60;99.90
32476;DHT22;18929;48.008;10.882;2023-04-29T03:59:47;12.70;99.90
32476;DHT22;18929;48.008;10.882;2023-04-29T04:02:14;12.90;99.90
32476;DHT22;18929;48.008;10.882;2023-04-29T04:04:41;12.80;99.90
32476;DHT22;18929;48.008;10.882;2023-04-29T04:07:08;13.00;99.90
32476;DHT22;18929;48.008;10.882;2023-04-29T04:09:36;12.70;99.90
32476;DHT22;18929;48.008;10.882;2023-04-29T04:12:03;12.50;99.90
32476;DHT22;18929;48.008;10.882;2023-04-29T04:14:31;12.20;99.90
32476;DHT22;18929;48.008;10.882;2023-04-29T04:16:59;12.30;99.90
32476;DHT22;18929;48.008;10.882;2023-04-29T04:19:25;12.30;99.90
32476;DHT22;18929;48.008;10.882;2023-04-29T04:21:53;12.40;99.90
32476;DHT22;18929;48.008;10.882;2023-04-29T04:24:20;12.70;99.90
32476;DHT22;18929;48.008;10.882;2023-04-29T04:26:47;12.80;99.90
32476;DHT22;18929;48.008;10.882;2023-04-29T04:29:14;12.80;99.90
32476;DHT22;18929;48.008;10.882;2023-04-29T04:31:42;12.60;99.90
32476;DHT22;18929;48.008;10.882;2023-04-29T04:34:09;12.60;99.90
32476;DHT22;18929;48.008;10.882;2023-04-29T04:36:36;12.70;99.90
32476;DHT22;18929;48.008;10.882;2023-04-29T04:39:03;12.80;99.90
32476;DHT22;18929;48.008;10.882;2023-04-29T04:41:30;12.80;99.90
32476;DHT22;18929;48.008;10.882;2023-04-29T04:43:57;12.80;99.90
32476;DHT22;18929;48.008;10.882;2023-04-29T04:46:24;12.70;99.90
32476;DHT22;18929;48.008;10.882;2023-04-29T04:49:04;12.90;99.90
32476;DHT22;18929;48.008;10.882;2023-04-29T04:51:32;13.00;99.90
32476;DHT22;18929;48.008;10.882;2023-04-29T04:53:58;12.80;99.90
32476;DHT22;18929;48.008;10.882;2023-04-29T04:56:25;12.80;99.90
32476;DHT22;18929;48.008;10.882;2023-04-29T04:58:52;12.90;99.90
32476;DHT22;18929;48.008;10.882;2023-04-29T05:01:19;12.90;99.90
32476;DHT22;18929;48.008;10.882;2023-04-29T05:03:45;12.90;99.90
32476;DHT22;18929;48.008;10.882;2023-04-29T05:06:14;12.90;99.90
32476;DHT22;18929;48.008;10.882;2023-04-29T05:08:40;12.90;99.90
32476;DHT22;18929;48.008;10.882;2023-04-29T05:11:14;12.80;99.90
32476;DHT22;18929;48.008;10.882;2023-04-29T05:13:40;12.90;99.90
32476;DHT22;18929;48.008;10.882;2023-04-29T05:16:07;12.80;99.90
32476;DHT22;18929;48.008;10.882;2023-04-29T05:18:34;12.90;99.90
32476;DHT22;18929;48.008;10.882;2023-04-29T05:21:01;12.80;99.90
32476;DHT22;18929;48.008;10.882;2023-04-29T05:23:29;12.90;99.90
32476;DHT22;18929;48.008;10.882;2023-04-29T05:25:56;12.70;99.90
32476;DHT22;18929;48.008;10.882;2023-04-29T05:28:23;12.80;99.90
32476;DHT22;18929;48.008;10.882;2023-04-29T05:30:50;13.00;99.90
32476;DHT22;18929;48.008;10.882;2023-04-29T05:33:17;13.00;99.90
32476;DHT22;18929;48.008;10.882;2023-04-29T05:35:43;13.10;99.90
32476;DHT22;18929;48.008;10.882;2023-04-29T05:38:10;13.40;99.90
32476;DHT22;18929;48.008;10.882;2023-04-29T05:40:38;13.40;99.90
32476;DHT22;18929;48.008;10.882;2023-04-29T05:43:05;13.30;99.90
32476;DHT22;18929;48.008;10.882;2023-04-29T05:45:32;13.40;99.90
32476;DHT22;18929;48.008;10.882;2023-04-29T05:47:58;13.40;99.90
32476;DHT22;18929;48.008;10.882;2023-04-29T05:50:25;13.90;99.90
32476;DHT22;18929;48.008;10.882;2023-04-29T05:52:52;14.80;99.90
32476;DHT22;18929;48.008;10.882;2023-04-29T05:55:21;15.30;99.90
32476;DHT22;18929;48.008;10.882;2023-04-29T05:57:49;16.20;99.90
32476;DHT22;18929;48.008;10.882;2023-04-29T06:00:16;15.40;99.90
32476;DHT22;18929;48.008;10.882;2023-04-29T06:02:42;14.60;99.90
32476;DHT22;18929;48.008;10.882;2023-04-29T06:05:10;13.80;99.90
32476;DHT22;18929;48.008;10.882;2023-04-29T06:07:37;13.20;99.90
32476;DHT22;18929;48.008;10.882;2023-04-29T06:10:05;13.30;99.90
32476;DHT22;18929;48.008;10.882;2023-04-29T06:12:32;13.80;99.90
32476;DHT22;18929;48.008;10.882;2023-04-29T06:15:01;13.00;99.90
32476;DHT22;18929;48.008;10.882;2023-04-29T06:17:27;13.20;99.90
32476;DHT22;18929;48.008;10.882;2023-04-29T06:19:54;13.20;99.90
32476;DHT22;18929;48.008;10.882;2023-04-29T06:22:21;13.20;99.90
32476;DHT22;18929;48.008;10.882;2023-04-29T06:24:48;12.60;99.90
32476;DHT22;18929;48.008;10.882;2023-04-29T06:27:15;12.70;99.90
32476;DHT22;18929;48.008;10.882;2023-04-29T06:29:41;12.90;99.90
32476;DHT22;18929;48.008;10.882;2023-04-29T06:32:10;13.10;99.90
32476;DHT22;18929;48.008;10.882;2023-04-29T06:34:38;13.50;99.90
32476;DHT22;18929;48.008;10.882;2023-04-29T06:37:05;13.30;99.90
32476;DHT22;18929;48.008;10.882;2023-04-29T06:39:32;13.40;99.90
32476;DHT22;18929;48.008;10.882;2023-04-29T06:41:59;13.70;99.90
32476;DHT22;18929;48.008;10.882;2023-04-29T06:44:26;13.50;99.90
32476;DHT22;18929;48.008;10.882;2023-04-29T06:46:54;13.50;99.90
32476;DHT22;18929;48.008;10.882;2023-04-29T06:49:22;13.70;99.90
32476;DHT22;18929;48.008;10.882;2023-04-29T06:51:49;14.10;99.90
32476;DHT22;18929;48.008;10.882;2023-04-29T06:54:16;14.00;99.90
32476;DHT22;18929;48.008;10.882;2023-04-29T06:56:43;13.60;99.90
32476;DHT22;18929;48.008;10.882;2023-04-29T06:59:10;13.80;99.90
32476;DHT22;18929;48.008;10.882;2023-04-29T07:01:37;13.60;99.90
32476;DHT22;18929;48.008;10.882;2023-04-29T07:04:06;14.00;99.90
32476;DHT22;18929;48.008;10.882;2023-04-29T07:06:34;14.00;99.90
32476;DHT22;18929;48.008;10.882;2023-04-29T07:09:01;14.00;99.90
32476;DHT22;18929;48.008;10.882;2023-04-29T07:11:28;13.90;99.90
32476;DHT22;18929;48.008;10.882;2023-04-29T07:13:55;14.00;99.90
32476;DHT22;18929;48.008;10.882;2023-04-29T07:16:21;14.30;99.90
32476;DHT22;18929;48.008;10.882;2023-04-29T07:18:50;13.70;99.90
32476;DHT22;18929;48.008;10.882;2023-04-29T07:21:17;13.80;99.90
32476;DHT22;18929;48.008;10.882;2023-04-29T07:23:45;14.10;99.90
32476;DHT22;18929;48.008;10.882;2023-04-29T07:26:12;14.50;99.90
32476;DHT22;18929;48.008;10.882;2023-04-29T07:28:40;13.80;99.90
32476;DHT22;18929;48.008;10.882;2023-04-29T07:31:07;13.40;99.90
32476;DHT22;18929;48.008;10.882;2023-04-29T07:33:34;13.80;99.90
32476;DHT22;18929;48.008;10.882;2023-04-29T07:36:01;14.40;99.90
32476;DHT22;18929;48.008;10.882;2023-04-29T07:38:28;14.50;99.90
32476;DHT22;18929;48.008;10.882;2023-04-29T07:40:56;14.60;99.90
32476;DHT22;18929;48.008;10.882;2023-04-29T07:43:23;14.60;99.90
32476;DHT22;18929;48.008;10.882;2023-04-29T07:45:50;14.10;99.90
32476;DHT22;18929;48.008;10.882;2023-04-29T07:48:17;14.30;99.90
32476;DHT22;18929;48.008;10.882;2023-04-29T07:50:45;14.40;99.90
32476;DHT22;18929;48.008;10.882;2023-04-29T07:53:12;14.00;99.90
32476;DHT22;18929;48.008;10.882;2023-04-29T07:55:40;13.80;99.90
32476;DHT22;18929;48.008;10.882;2023-04-29T07:58:08;13.60;99.90
32476;DHT22;18929;48.008;10.882;2023-04-29T08:00:35;14.10;99.90
32476;DHT22;18929;48.008;10.882;2023-04-29T08:03:02;14.40;99.90
32476;DHT22;18929;48.008;10.882;2023-04-29T08:05:29;13.70;99.90
32476;DHT22;18929;48.008;10.882;2023-04-29T08:07:56;13.90;99.90
32476;DHT22;18929;48.008;10.882;2023-04-29T08:10:22;13.90;99.90
32476;DHT22;18929;48.008;10.882;2023-04-29T08:12:49;13.90;99.90
32476;DHT22;18929;48.008;10.882;2023-04-29T08:15:17;13.80;99.90
32476;DHT22;18929;48.008;10.882;2023-04-29T08:17:44;14.30;99.90
32476;DHT22;18929;48.008;10.882;2023-04-29T08:20:11;15.20;99.90
32476;DHT22;18929;48.008;10.882;2023-04-29T08:22:39;15.80;99.90
32476;DHT22;18929;48.008;10.882;2023-04-29T08:25:07;15.70;99.90
32476;DHT22;18929;48.008;10.882;2023-04-29T08:27:34;15.80;99.90
32476;DHT22;18929;48.008;10.882;2023-04-29T08:30:00;15.50;99.90
32476;DHT22;18929;48.008;10.882;2023-04-29T08:32:29;15.10;99.90
32476;DHT22;18929;48.008;10.882;2023-04-29T08:34:56;14.40;99.90
32476;DHT22;18929;48.008;10.882;2023-04-29T08:37:23;14.90;99.90
32476;DHT22;18929;48.008;10.882;2023-04-29T08:39:50;14.80;99.90
32476;DHT22;18929;48.008;10.882;2023-04-29T08:42:17;14.30;99.90
32476;DHT22;18929;48.008;10.882;2023-04-29T08:44:46;14.20;99.90
32476;DHT22;18929;48.008;10.882;2023-04-29T08:47:13;14.90;99.90
32476;DHT22;18929;48.008;10.882;2023-04-29T08:49:42;14.90;99.90
32476;DHT22;18929;48.008;10.882;2023-04-29T08:52:15;14.70;99.90
32476;DHT22;18929;48.008;10.882;2023-04-29T08:54:42;14.60;99.90
32476;DHT22;18929;48.008;10.882;2023-04-29T08:57:08;14.50;99.90
32476;DHT22;18929;48.008;10.882;2023-04-29T08:59:36;14.50;99.90
32476;DHT22;18929;48.008;10.882;2023-04-29T09:02:04;14.60;99.90
32476;DHT22;18929;48.008;10.882;2023-04-29T09:04:41;14.30;99.90
32476;DHT22;18929;48.008;10.882;2023-04-29T09:07:14;14.60;99.90
32476;DHT22;18929;48.008;10.882;2023-04-29T09:09:41;14.60;99.90
32476;DHT22;18929;48.008;10.882;2023-04-29T09:12:08;14.50;99.90
32476;DHT22;18929;48.008;10.882;2023-04-29T09:14:35;14.60;99.90
32476;DHT22;18929;48.008;10.882;2023-04-29T09:17:02;14.80;99.90
32476;DHT22;18929;48.008;10.882;2023-04-29T09:19:29;15.10;99.90
32476;DHT22;18929;48.008;10.882;2023-04-29T09:21:56;15.20;99.90
32476;DHT22;18929;48.008;10.882;2023-04-29T09:24:25;15.20;99.90
32476;DHT22;18929;48.008;10.882;2023-04-29T09:26:52;15.30;99.90
32476;DHT22;18929;48.008;10.882;2023-04-29T09:29:19;15.60;99.90
32476;DHT22;18929;48.008;10.882;2023-04-29T09:31:47;15.30;99.90
32476;DHT22;18929;48.008;10.882;2023-04-29T09:34:14;15.50;99.90
32476;DHT22;18929;48.008;10.882;2023-04-29T09:36:41;14.90;99.90
32476;DHT22;18929;48.008;10.882;2023-04-29T09:39:09;14.90;99.90
32476;DHT22;18929;48.008;10.882;2023-04-29T09:44:25;15.30;99.90
32476;DHT22;18929;48.008;10.882;2023-04-29T09:46:55;15.50;99.90
32476;DHT22;18929;48.008;10.882;2023-04-29T09:49:23;15.80;99.90
32476;DHT22;18929;48.008;10.882;2023-04-29T09:51:51;15.60;99.90
32476;DHT22;18929;48.008;10.882;2023-04-29T09:54:19;15.70;99.90
32476;DHT22;18929;48.008;10.882;2023-04-29T09:56:47;15.70;99.90
32476;DHT22;18929;48.008;10.882;2023-04-29T09:59:14;16.50;99.90
32476;DHT22;18929;48.008;10.882;2023-04-29T10:01:42;16.00;99.90
32476;DHT22;18929;48.008;10.882;2023-04-29T10:04:09;15.60;99.90
32476;DHT22;18929;48.008;10.882;2023-04-29T10:06:37;15.30;99.90
32476;DHT22;18929;48.008;10.882;2023-04-29T10:11:42;15.20;99.90
32476;DHT22;18929;48.008;10.882;2023-04-29T10:14:11;15.20;99.90
32476;DHT22;18929;48.008;10.882;2023-04-29T10:16:38;15.00;99.90
32476;DHT22;18929;48.008;10.882;2023-04-29T10:19:09;15.00;99.90
32476;DHT22;18929;48.008;10.882;2023-04-29T10:21:37;15.40;99.90
32476;DHT22;18929;48.008;10.882;2023-04-29T10:24:04;15.70;99.90
32476;DHT22;18929;48.008;10.882;2023-04-29T10:26:31;15.90;99.90
32476;DHT22;18929;48.008;10.882;2023-04-29T10:29:01;16.00;99.90
32476;DHT22;18929;48.008;10.882;2023-04-29T10:31:29;16.20;99.90
32476;DHT22;18929;48.008;10.882;2023-04-29T10:33:57;16.30;99.90
32476;DHT22;18929;48.008;10.882;2023-04-29T10:36:26;15.80;99.90
32476;DHT22;18929;48.008;10.882;2023-04-29T10:38:55;15.90;99.90
32476;DHT22;18929;48.008;10.882;2023-04-29T10:41:24;15.90;99.90
32476;DHT22;18929;48.008;10.882;2023-04-29T10:43:53;15.80;99.90
32476;DHT22;18929;48.008;10.882;2023-04-29T10:46:20;15.50;99.90
32476;DHT22;18929;48.008;10.882;2023-04-29T10:48:48;15.00;99.90
32476;DHT22;18929;48.008;10.882;2023-04-29T10:51:30;14.90;99.90
32476;DHT22;18929;48.008;10.882;2023-04-29T10:53:58;14.60;99.90
32476;DHT22;18929;48.008;10.882;2023-04-29T10:56:34;15.20;99.90
32476;DHT22;18929;48.008;10.882;2023-04-29T10:59:01;15.40;99.90
32476;DHT22;18929;48.008;10.882;2023-04-29T11:01:39;15.50;99.90
32476;DHT22;18929;48.008;10.882;2023-04-29T11:04:06;15.00;99.90
32476;DHT22;18929;48.008;10.882;2023-04-29T11:06:39;15.30;99.90
32476;DHT22;18929;48.008;10.882;2023-04-29T11:09:07;15.20;99.90
32476;DHT22;18929;48.008;10.882;2023-04-29T11:11:42;15.40;99.90
32476;DHT22;18929;48.008;10.882;2023-04-29T11:14:09;15.50;99.90
32476;DHT22;18929;48.008;10.882;2023-04-29T11:16:36;15.30;99.90
32476;DHT22;18929;48.008;10.882;2023-04-29T11:19:06;15.60;99.90
32476;DHT22;18929;48.008;10.882;2023-04-29T11:21:33;15.40;99.90
32476;DHT22;18929;48.008;10.882;2023-04-29T11:24:01;15.10;99.90
32476;DHT22;18929;48.008;10.882;2023-04-29T11:26:30;15.20;99.90
32476;DHT22;18929;48.008;10.882;2023-04-29T11:34:15;15.60;99.90
32476;DHT22;18929;48.008;10.882;2023-04-29T11:36:43;16.00;99.90
32476;DHT22;18929;48.008;10.882;2023-04-29T11:39:12;16.20;99.90
32476;DHT22;18929;48.008;10.882;2023-04-29T11:41:38;16.10;99.90
32476;DHT22;18929;48.008;10.882;2023-04-29T11:44:05;16.00;99.90
32476;DHT22;18929;48.008;10.882;2023-04-29T11:46:33;16.00;99.90
32476;DHT22;18929;48.008;10.882;2023-04-29T11:49:00;16.10;99.90
32476;DHT22;18929;48.008;10.882;2023-04-29T11:51:27;16.00;99.90
32476;DHT22;18929;48.008;10.882;2023-04-29T11:53:55;16.10;99.90
32476;DHT22;18929;48.008;10.882;2023-04-29T11:56:23;15.70;99.90
32476;DHT22;18929;48.008;10.882;2023-04-29T11:58:52;15.50;99.90
32476;DHT22;18929;48.008;10.882;2023-04-29T12:01:20;16.30;99.90
32476;DHT22;18929;48.008;10.882;2023-04-29T12:03:47;16.70;99.90
32476;DHT22;18929;48.008;10.882;2023-04-29T12:06:14;16.40;99.90
32476;DHT22;18929;48.008;10.882;2023-04-29T12:08:41;16.50;99.90
32476;DHT22;18929;48.008;10.882;2023-04-29T12:11:07;16.60;99.90
32476;DHT22;18929;48.008;10.882;2023-04-29T12:13:35;16.90;99.90
32476;DHT22;18929;48.008;10.882;2023-04-29T12:16:03;17.00;99.90
32476;DHT22;18929;48.008;10.882;2023-04-29T12:18:30;17.10;99.90
32476;DHT22;18929;48.008;10.882;2023-04-29T12:20:57;16.50;99.90
32476;DHT22;18929;48.008;10.882;2023-04-29T12:23:24;16.50;99.90
32476;DHT22;18929;48.008;10.882;2023-04-29T12:25:52;16.40;99.90
32476;DHT22;18929;48.008;10.882;2023-04-29T12:28:19;16.50;99.90
32476;DHT22;18929;48.008;10.882;2023-04-29T12:30:48;16.70;99.90
32476;DHT22;18929;48.008;10.882;2023-04-29T12:33:17;16.60;99.90
32476;DHT22;18929;48.008;10.882;2023-04-29T12:35:46;16.70;99.90
32476;DHT22;18929;48.008;10.882;2023-04-29T12:38:19;16.60;99.90
32476;DHT22;18929;48.008;10.882;2023-04-29T12:40:47;16.80;99.90
32476;DHT22;18929;48.008;10.882;2023-04-29T12:43:14;16.40;99.90
32476;DHT22;18929;48.008;10.882;2023-04-29T12:45:41;16.50;99.90
32476;DHT22;18929;48.008;10.882;2023-04-29T12:48:09;16.90;99.90
32476;DHT22;18929;48.008;10.882;2023-04-29T12:50:37;17.20;99.90
32476;DHT22;18929;48.008;10.882;2023-04-29T12:53:04;16.90;99.90
32476;DHT22;18929;48.008;10.882;2023-04-29T12:55:32;17.30;99.90
32476;DHT22;18929;48.008;10.882;2023-04-29T12:57:59;17.40;99.90
32476;DHT22;18929;48.008;10.882;2023-04-29T13:00:26;17.80;99.90
32476;DHT22;18929;48.008;10.882;2023-04-29T13:02:53;17.40;99.90
32476;DHT22;18929;48.008;10.882;2023-04-29T13:05:22;17.00;99.90
32476;DHT22;18929;48.008;10.882;2023-04-29T13:07:49;16.80;99.90
32476;DHT22;18929;48.008;10.882;2023-04-29T13:10:16;16.70;99.90
32476;DHT22;18929;48.008;10.882;2023-04-29T13:12:42;17.00;99.90
32476;DHT22;18929;48.008;10.882;2023-04-29T13:15:10;17.10;99.90
32476;DHT22;18929;48.008;10.882;2023-04-29T13:17:38;17.30;99.90
32476;DHT22;18929;48.008;10.882;2023-04-29T13:20:06;17.30;99.90
32476;DHT22;18929;48.008;10.882;2023-04-29T13:22:35;17.10;99.90
32476;DHT22;18929;48.008;10.882;2023-04-29T13:25:02;17.00;99.90
32476;DHT22;18929;48.008;10.882;2023-04-29T13:27:29;17.00;99.90
32476;DHT22;18929;48.008;10.882;2023-04-29T13:29:56;17.10;99.90
32476;DHT22;18929;48.008;10.882;2023-04-29T13:32:23;17.10;99.90
32476;DHT22;18929;48.008;10.882;2023-04-29T13:34:50;17.40;99.90
32476;DHT22;18929;48.008;10.882;2023-04-29T13:37:17;17.50;99.90
32476;DHT22;18929;48.008;10.882;2023-04-29T13:39:45;17.40;99.90
32476;DHT22;18929;48.008;10.882;2023-04-29T13:42:12;17.70;99.90
32476;DHT22;18929;48.008;10.882;2023-04-29T13:44:39;17.10;99.90
32476;DHT22;18929;48.008;10.882;2023-04-29T13:47:09;17.20;99.90
32476;DHT22;18929;48.008;10.882;2023-04-29T13:49:37;17.00;99.90
32476;DHT22;18929;48.008;10.882;2023-04-29T13:52:06;17.10;99.90
32476;DHT22;18929;48.008;10.882;2023-04-29T13:54:34;17.20;99.90
32476;DHT22;18929;48.008;10.882;2023-04-29T13:57:06;17.40;99.90
32476;DHT22;18929;48.008;10.882;2023-04-29T13:59:33;17.20;99.90
32476;DHT22;18929;48.008;10.882;2023-04-29T14:02:01;16.90;99.90
32476;DHT22;18929;48.008;10.882;2023-04-29T14:04:42;16.90;99.90
32476;DHT22;18929;48.008;10.882;2023-04-29T14:07:09;17.20;99.90
32476;DHT22;18929;48.008;10.882;2023-04-29T14:09:36;17.30;99.90
32476;DHT22;18929;48.008;10.882;2023-04-29T14:12:03;17.00;99.90
32476;DHT22;18929;48.008;10.882;2023-04-29T14:14:31;17.00;99.90
32476;DHT22;18929;48.008;10.882;2023-04-29T14:23:22;17.20;99.90
32476;DHT22;18929;48.008;10.882;2023-04-29T14:25:49;17.40;99.90
32476;DHT22;18929;48.008;10.882;2023-04-29T14:28:16;17.70;99.90
32476;DHT22;18929;48.008;10.882;2023-04-29T14:30:44;18.20;99.90
32476;DHT22;18929;48.008;10.882;2023-04-29T14:33:11;19.10;99.90
32476;DHT22;18929;48.008;10.882;2023-04-29T14:35:38;17.60;99.90
32476;DHT22;18929;48.008;10.882;2023-04-29T14:38:05;17.50;99.90
32476;DHT22;18929;48.008;10.882;2023-04-29T14:40:32;17.40;99.90
32476;DHT22;18929;48.008;10.882;2023-04-29T14:42:59;17.40;99.90
32476;DHT22;18929;48.008;10.882;2023-04-29T14:45:26;17.70;99.90
32476;DHT22;18929;48.008;10.882;2023-04-29T14:47:55;18.20;99.90
32476;DHT22;18929;48.008;10.882;2023-04-29T14:50:21;18.20;99.90
32476;DHT22;18929;48.008;10.882;2023-04-29T14:52:49;18.00;99.90
32476;DHT22;18929;48.008;10.882;2023-04-29T14:55:17;17.60;99.90
32476;DHT22;18929;48.008;10.882;2023-04-29T14:57:43;17.60;99.90
32476;DHT22;18929;48.008;10.882;2023-04-29T15:00:11;17.60;99.90
32476;DHT22;18929;48.008;10.882;2023-04-29T15:02:39;17.80;99.90
32476;DHT22;18929;48.008;10.882;2023-04-29T15:05:07;18.00;99.90
32476;DHT22;18929;48.008;10.882;2023-04-29T15:07:34;17.40;99.90
32476;DHT22;18929;48.008;10.882;2023-04-29T15:10:01;18.40;99.90
32476;DHT22;18929;48.008;10.882;2023-04-29T15:12:31;18.70;99.90
32476;DHT22;18929;48.008;10.882;2023-04-29T15:14:57;17.70;99.90
32476;DHT22;18929;48.008;10.882;2023-04-29T15:17:24;17.80;99.90
32476;DHT22;18929;48.008;10.882;2023-04-29T15:19:51;17.70;99.90
32476;DHT22;18929;48.008;10.882;2023-04-29T15:22:19;17.80;99.90
32476;DHT22;18929;48.008;10.882;2023-04-29T15:24:46;17.90;99.90
32476;DHT22;18929;48.008;10.882;2023-04-29T15:27:12;17.10;99.90
32476;DHT22;18929;48.008;10.882;2023-04-29T15:29:40;17.30;99.90
32476;DHT22;18929;48.008;10.882;2023-04-29T15:32:07;17.10;99.90
32476;DHT22;18929;48.008;10.882;2023-04-29T15:34:34;17.00;99.90
32476;DHT22;18929;48.008;10.882;2023-04-29T15:37:01;17.50;99.90